sensor_id;sensor_type;location;lat;lon;timestamp;temperature;humidity
1429;DHT22;708;51.442;7.016;2022-11-15T00:01:28;13.60;1.00
1429;DHT22;708;51.442;7.016;2022-11-15T00:03:54;13.60;1.00
1429;DHT22;708;51.442;7.016;2022-11-15T00:06:22;13.60;1.00
1429;DHT22;708;51.442;7.016;2022-11-15T00:08:49;13.70;1.00
1429;DHT22;708;51.442;7.016;2022-11-15T00:11:16;13.60;1.00
1429;DHT22;708;51.442;7.016;2022-11-15T00:13:43;13.70;19.70
1429;DHT22;708;51.442;7.016;2022-11-15T00:16:09;13.70;99.70
1429;DHT22;708;51.442;7.016;2022-11-15T00:18:37;13.70;99.90
1429;DHT22;708;51.442;7.016;2022-11-15T00:21:06;13.70;99.90
1429;DHT22;708;51.442;7.016;2022-11-15T00:23:34;13.70;99.90
1429;DHT22;708;51.442;7.016;2022-11-15T00:26:01;13.70;99.90
1429;DHT22;708;51.442;7.016;2022-11-15T00:28:28;13.70;99.90
1429;DHT22;708;51.442;7.016;2022-11-15T00:31:00;13.80;99.90
1429;DHT22;708;51.442;7.016;2022-11-15T00:33:27;13.90;99.90
1429;DHT22;708;51.442;7.016;2022-11-15T00:35:58;13.90;99.90
1429;DHT22;708;51.442;7.016;2022-11-15T00:38:25;14.00;99.90
1429;DHT22;708;51.442;7.016;2022-11-15T00:40:53;14.00;99.90
1429;DHT22;708;51.442;7.016;2022-11-15T00:43:20;14.00;99.90
1429;DHT22;708;51.442;7.016;2022-11-15T00:45:47;14.10;99.90
1429;DHT22;708;51.442;7.016;2022-11-15T00:48:13;14.10;99.90
1429;DHT22;708;51.442;7.016;2022-11-15T00:50:40;14.10;99.90
1429;DHT22;708;51.442;7.016;2022-11-15T00:53:07;14.10;99.90
1429;DHT22;708;51.442;7.016;2022-11-15T00:55:34;14.10;99.90
1429;DHT22;708;51.442;7.016;2022-11-15T00:58:02;14.20;99.90
1429;DHT22;708;51.442;7.016;2022-11-15T01:00:29;14.20;99.90
1429;DHT22;708;51.442;7.016;2022-11-15T01:02:56;14.20;99.90
1429;DHT22;708;51.442;7.016;2022-11-15T01:05:22;14.20;99.90
1429;DHT22;708;51.442;7.016;2022-11-15T01:07:51;14.40;99.90
1429;DHT22;708;51.442;7.016;2022-11-15T01:10:18;14.30;99.90
1429;DHT22;708;51.442;7.016;2022-11-15T01:12:45;14.40;99.90
1429;DHT22;708;51.442;7.016;2022-11-15T01:15:13;14.30;99.90
1429;DHT22;708;51.442;7.016;2022-11-15T01:17:40;14.40;99.90
1429;DHT22;708;51.442;7.016;2022-11-15T01:20:08;14.40;99.90
1429;DHT22;708;51.442;7.016;2022-11-15T01:22:35;14.40;99.90
1429;DHT22;708;51.442;7.016;2022-11-15T01:25:02;14.40;99.90
1429;DHT22;708;51.442;7.016;2022-11-15T01:27:29;14.50;99.90
1429;DHT22;708;51.442;7.016;2022-11-15T01:29:56;14.50;99.90
1429;DHT22;708;51.442;7.016;2022-11-15T01:32:24;14.50;99.90
1429;DHT22;708;51.442;7.016;2022-11-15T01:34:51;14.50;99.90
1429;DHT22;708;51.442;7.016;2022-11-15T01:37:17;14.50;99.90
1429;DHT22;708;51.442;7.016;2022-11-15T01:39:44;14.50;99.90
1429;DHT22;708;51.442;7.016;2022-11-15T01:42:12;14.40;99.90
1429;DHT22;708;51.442;7.016;2022-11-15T01:44:42;14.40;99.90
1429;DHT22;708;51.442;7.016;2022-11-15T01:47:12;14.30;1.00
1429;DHT22;708;51.442;7.016;2022-11-15T01:49:49;14.20;1.00
1429;DHT22;708;51.442;7.016;2022-11-15T01:52:19;14.20;1.00
1429;DHT22;708;51.442;7.016;2022-11-15T01:54:48;14.20;1.00
1429;DHT22;708;51.442;7.016;2022-11-15T01:57:16;14.30;1.00
1429;DHT22;708;51.442;7.016;2022-11-15T01:59:44;14.30;1.00
1429;DHT22;708;51.442;7.016;2022-11-15T02:02:12;14.40;1.00
1429;DHT22;708;51.442;7.016;2022-11-15T02:04:42;14.40;1.00
1429;DHT22;708;51.442;7.016;2022-11-15T02:07:11;14.40;1.00
1429;DHT22;708;51.442;7.016;2022-11-15T02:09:39;14.40;1.00
1429;DHT22;708;51.442;7.016;2022-11-15T02:12:08;14.50;1.00
1429;DHT22;708;51.442;7.016;2022-11-15T02:14:36;14.50;99.90
1429;DHT22;708;51.442;7.016;2022-11-15T02:17:13;14.50;99.90
1429;DHT22;708;51.442;7.016;2022-11-15T02:20:25;14.50;99.90
1429;DHT22;708;51.442;7.016;2022-11-15T02:23:27;14.50;99.90
1429;DHT22;708;51.442;7.016;2022-11-15T02:26:07;14.50;99.90
1429;DHT22;708;51.442;7.016;2022-11-15T02:28:45;14.50;99.90
1429;DHT22;708;51.442;7.016;2022-11-15T02:31:22;14.50;99.90
1429;DHT22;708;51.442;7.016;2022-11-15T02:33:57;14.50;99.90
1429;DHT22;708;51.442;7.016;2022-11-15T02:36:35;14.50;99.90
1429;DHT22;708;51.442;7.016;2022-11-15T02:39:07;14.40;1.00
1429;DHT22;708;51.442;7.016;2022-11-15T02:41:42;14.30;1.00
1429;DHT22;708;51.442;7.016;2022-11-15T02:44:16;14.30;1.00
1429;DHT22;708;51.442;7.016;2022-11-15T02:46:46;14.20;1.00
1429;DHT22;708;51.442;7.016;2022-11-15T02:49:34;14.10;99.90
1429;DHT22;708;51.442;7.016;2022-11-15T02:52:01;14.10;1.00
1429;DHT22;708;51.442;7.016;2022-11-15T02:54:30;14.10;99.90
1429;DHT22;708;51.442;7.016;2022-11-15T02:57:00;14.10;99.90
1429;DHT22;708;51.442;7.016;2022-11-15T02:59:48;14.20;99.90
1429;DHT22;708;51.442;7.016;2022-11-15T03:02:31;14.20;99.90
1429;DHT22;708;51.442;7.016;2022-11-15T03:05:07;14.30;1.00
1429;DHT22;708;51.442;7.016;2022-11-15T03:07:39;14.30;1.00
1429;DHT22;708;51.442;7.016;2022-11-15T03:10:14;14.40;99.90
1429;DHT22;708;51.442;7.016;2022-11-15T03:12:50;14.40;99.90
1429;DHT22;708;51.442;7.016;2022-11-15T03:15:23;14.50;99.90
1429;DHT22;708;51.442;7.016;2022-11-15T03:17:57;14.50;98.50
1429;DHT22;708;51.442;7.016;2022-11-15T03:20:26;14.50;19.80
1429;DHT22;708;51.442;7.016;2022-11-15T03:22:56;14.60;52.40
1429;DHT22;708;51.442;7.016;2022-11-15T03:25:26;14.60;40.40
1429;DHT22;708;51.442;7.016;2022-11-15T03:27:57;14.60;99.90
1429;DHT22;708;51.442;7.016;2022-11-15T03:30:24;14.60;99.90
1429;DHT22;708;51.442;7.016;2022-11-15T03:32:56;14.60;99.90
1429;DHT22;708;51.442;7.016;2022-11-15T03:35:24;14.70;99.90
1429;DHT22;708;51.442;7.016;2022-11-15T03:37:55;14.60;99.90
1429;DHT22;708;51.442;7.016;2022-11-15T03:40:27;14.70;99.90
1429;DHT22;708;51.442;7.016;2022-11-15T03:43:00;14.70;99.90
1429;DHT22;708;51.442;7.016;2022-11-15T03:45:31;14.70;99.90
1429;DHT22;708;51.442;7.016;2022-11-15T03:48:02;14.70;99.90
1429;DHT22;708;51.442;7.016;2022-11-15T03:50:31;14.70;99.90
1429;DHT22;708;51.442;7.016;2022-11-15T03:52:58;14.80;99.00
1429;DHT22;708;51.442;7.016;2022-11-15T03:55:25;14.80;77.80
1429;DHT22;708;51.442;7.016;2022-11-15T03:57:55;14.80;40.60
1429;DHT22;708;51.442;7.016;2022-11-15T04:00:23;14.80;15.60
1429;DHT22;708;51.442;7.016;2022-11-15T04:02:50;14.80;1.00
1429;DHT22;708;51.442;7.016;2022-11-15T04:05:18;14.80;1.00
1429;DHT22;708;51.442;7.016;2022-11-15T04:07:45;14.80;1.00
1429;DHT22;708;51.442;7.016;2022-11-15T04:10:12;14.90;1.00
1429;DHT22;708;51.442;7.016;2022-11-15T04:12:40;14.90;1.00
1429;DHT22;708;51.442;7.016;2022-11-15T04:15:11;14.80;1.00
1429;DHT22;708;51.442;7.016;2022-11-15T04:17:39;14.90;1.00
1429;DHT22;708;51.442;7.016;2022-11-15T04:20:09;14.90;1.00
1429;DHT22;708;51.442;7.016;2022-11-15T04:22:56;14.80;1.00
1429;DHT22;708;51.442;7.016;2022-11-15T04:25:41;14.90;1.00
1429;DHT22;708;51.442;7.016;2022-11-15T04:28:08;14.90;1.00
1429;DHT22;708;51.442;7.016;2022-11-15T04:30:35;14.80;1.00
1429;DHT22;708;51.442;7.016;2022-11-15T04:33:02;14.90;1.00
1429;DHT22;708;51.442;7.016;2022-11-15T04:35:29;14.90;1.00
1429;DHT22;708;51.442;7.016;2022-11-15T04:37:58;14.90;1.00
1429;DHT22;708;51.442;7.016;2022-11-15T04:40:23;14.90;99.90
1429;DHT22;708;51.442;7.016;2022-11-15T04:42:50;14.90;1.00
1429;DHT22;708;51.442;7.016;2022-11-15T04:45:17;14.90;99.90
1429;DHT22;708;51.442;7.016;2022-11-15T04:47:44;14.90;99.90
1429;DHT22;708;51.442;7.016;2022-11-15T04:50:12;15.00;1.00
1429;DHT22;708;51.442;7.016;2022-11-15T04:52:40;14.90;1.00
1429;DHT22;708;51.442;7.016;2022-11-15T04:55:08;14.90;1.00
1429;DHT22;708;51.442;7.016;2022-11-15T04:57:35;14.90;1.00
1429;DHT22;708;51.442;7.016;2022-11-15T05:00:04;14.90;1.00
1429;DHT22;708;51.442;7.016;2022-11-15T05:02:31;15.00;1.00
1429;DHT22;708;51.442;7.016;2022-11-15T05:05:12;14.90;1.00
1429;DHT22;708;51.442;7.016;2022-11-15T05:07:39;14.90;53.00
1429;DHT22;708;51.442;7.016;2022-11-15T05:10:08;14.80;99.90
1429;DHT22;708;51.442;7.016;2022-11-15T05:12:35;14.80;1.00
1429;DHT22;708;51.442;7.016;2022-11-15T05:15:02;14.80;1.00
1429;DHT22;708;51.442;7.016;2022-11-15T05:17:29;14.90;24.40
1429;DHT22;708;51.442;7.016;2022-11-15T05:19:55;14.80;99.90
1429;DHT22;708;51.442;7.016;2022-11-15T05:22:22;14.80;99.90
1429;DHT22;708;51.442;7.016;2022-11-15T05:24:49;14.80;1.00
1429;DHT22;708;51.442;7.016;2022-11-15T05:27:17;14.80;99.90
1429;DHT22;708;51.442;7.016;2022-11-15T05:29:44;14.80;1.00
1429;DHT22;708;51.442;7.016;2022-11-15T05:32:12;14.70;1.00
1429;DHT22;708;51.442;7.016;2022-11-15T05:34:39;14.70;99.90
1429;DHT22;708;51.442;7.016;2022-11-15T05:37:06;14.60;1.00
1429;DHT22;708;51.442;7.016;2022-11-15T05:39:32;14.50;99.90
1429;DHT22;708;51.442;7.016;2022-11-15T05:42:01;14.50;99.90
1429;DHT22;708;51.442;7.016;2022-11-15T05:44:33;14.40;99.90
1429;DHT22;708;51.442;7.016;2022-11-15T05:47:00;14.40;1.00
1429;DHT22;708;51.442;7.016;2022-11-15T05:49:31;14.30;1.00
1429;DHT22;708;51.442;7.016;2022-11-15T05:52:00;14.30;1.00
1429;DHT22;708;51.442;7.016;2022-11-15T05:54:31;14.30;1.00
1429;DHT22;708;51.442;7.016;2022-11-15T05:56:59;14.10;1.00
1429;DHT22;708;51.442;7.016;2022-11-15T05:59:28;14.30;1.00
1429;DHT22;708;51.442;7.016;2022-11-15T06:01:57;14.30;1.00
1429;DHT22;708;51.442;7.016;2022-11-15T06:04:24;14.30;1.00
1429;DHT22;708;51.442;7.016;2022-11-15T06:06:51;14.30;1.00
1429;DHT22;708;51.442;7.016;2022-11-15T06:09:18;14.40;1.00
1429;DHT22;708;51.442;7.016;2022-11-15T06:11:45;14.40;1.00
1429;DHT22;708;51.442;7.016;2022-11-15T06:14:13;14.40;1.00
1429;DHT22;708;51.442;7.016;2022-11-15T06:16:40;14.30;1.00
1429;DHT22;708;51.442;7.016;2022-11-15T06:19:08;14.40;1.00
1429;DHT22;708;51.442;7.016;2022-11-15T06:21:35;14.40;1.00
1429;DHT22;708;51.442;7.016;2022-11-15T06:24:02;14.30;1.00
1429;DHT22;708;51.442;7.016;2022-11-15T06:26:29;14.30;1.00
1429;DHT22;708;51.442;7.016;2022-11-15T06:29:11;14.30;1.00
1429;DHT22;708;51.442;7.016;2022-11-15T06:31:48;14.30;1.00
1429;DHT22;708;51.442;7.016;2022-11-15T06:34:17;14.40;1.00
1429;DHT22;708;51.442;7.016;2022-11-15T06:36:43;14.40;1.00
1429;DHT22;708;51.442;7.016;2022-11-15T06:39:10;14.50;1.00
1429;DHT22;708;51.442;7.016;2022-11-15T06:41:37;14.40;1.00
1429;DHT22;708;51.442;7.016;2022-11-15T06:44:05;14.50;1.00
1429;DHT22;708;51.442;7.016;2022-11-15T06:46:32;14.50;1.00
1429;DHT22;708;51.442;7.016;2022-11-15T06:48:59;14.50;99.90
1429;DHT22;708;51.442;7.016;2022-11-15T06:51:27;14.50;99.90
1429;DHT22;708;51.442;7.016;2022-11-15T06:53:54;14.50;99.90
1429;DHT22;708;51.442;7.016;2022-11-15T06:56:21;14.60;99.90
1429;DHT22;708;51.442;7.016;2022-11-15T06:58:48;14.60;99.90
1429;DHT22;708;51.442;7.016;2022-11-15T07:01:15;14.60;99.90
1429;DHT22;708;51.442;7.016;2022-11-15T07:03:44;14.70;99.90
1429;DHT22;708;51.442;7.016;2022-11-15T07:06:12;14.60;99.90
1429;DHT22;708;51.442;7.016;2022-11-15T07:08:42;14.60;1.00
1429;DHT22;708;51.442;7.016;2022-11-15T07:11:09;14.70;1.00
1429;DHT22;708;51.442;7.016;2022-11-15T07:13:36;14.60;99.90
1429;DHT22;708;51.442;7.016;2022-11-15T07:16:05;14.60;99.90
1429;DHT22;708;51.442;7.016;2022-11-15T07:18:34;14.60;99.90
1429;DHT22;708;51.442;7.016;2022-11-15T07:21:03;14.50;99.90
1429;DHT22;708;51.442;7.016;2022-11-15T07:23:31;14.60;99.90
1429;DHT22;708;51.442;7.016;2022-11-15T07:25:59;14.60;1.00
1429;DHT22;708;51.442;7.016;2022-11-15T07:28:26;14.70;52.20
1429;DHT22;708;51.442;7.016;2022-11-15T07:30:54;14.70;38.20
1429;DHT22;708;51.442;7.016;2022-11-15T07:33:21;14.70;1.00
1429;DHT22;708;51.442;7.016;2022-11-15T07:35:48;14.70;99.90
1429;DHT22;708;51.442;7.016;2022-11-15T07:38:18;14.80;99.90
1429;DHT22;708;51.442;7.016;2022-11-15T07:40:46;14.80;1.00
1429;DHT22;708;51.442;7.016;2022-11-15T07:43:15;14.80;99.90
1429;DHT22;708;51.442;7.016;2022-11-15T07:45:43;14.70;99.90
1429;DHT22;708;51.442;7.016;2022-11-15T07:48:11;14.70;99.90
1429;DHT22;708;51.442;7.016;2022-11-15T07:50:40;14.70;99.90
1429;DHT22;708;51.442;7.016;2022-11-15T07:53:09;14.80;99.90
1429;DHT22;708;51.442;7.016;2022-11-15T07:55:36;14.80;86.90
1429;DHT22;708;51.442;7.016;2022-11-15T07:58:05;14.80;54.30
1429;DHT22;708;51.442;7.016;2022-11-15T08:00:35;14.80;26.80
1429;DHT22;708;51.442;7.016;2022-11-15T08:03:04;14.80;2.10
1429;DHT22;708;51.442;7.016;2022-11-15T08:05:31;14.90;23.90
1429;DHT22;708;51.442;7.016;2022-11-15T08:07:58;15.30;99.90
1429;DHT22;708;51.442;7.016;2022-11-15T08:10:25;15.80;1.00
1429;DHT22;708;51.442;7.016;2022-11-15T08:12:59;16.60;99.90
1429;DHT22;708;51.442;7.016;2022-11-15T08:15:28;17.00;99.90
1429;DHT22;708;51.442;7.016;2022-11-15T08:17:58;17.20;99.90
1429;DHT22;708;51.442;7.016;2022-11-15T08:20:27;17.20;99.90
1429;DHT22;708;51.442;7.016;2022-11-15T08:22:55;17.30;99.90
1429;DHT22;708;51.442;7.016;2022-11-15T08:25:22;17.70;99.90
1429;DHT22;708;51.442;7.016;2022-11-15T08:27:52;18.10;99.90
1429;DHT22;708;51.442;7.016;2022-11-15T08:30:19;18.60;99.90
1429;DHT22;708;51.442;7.016;2022-11-15T08:32:47;18.80;99.90
1429;DHT22;708;51.442;7.016;2022-11-15T08:35:17;18.90;99.90
1429;DHT22;708;51.442;7.016;2022-11-15T08:37:45;19.00;99.90
1429;DHT22;708;51.442;7.016;2022-11-15T08:40:12;19.10;99.90
1429;DHT22;708;51.442;7.016;2022-11-15T08:42:39;18.90;99.90
1429;DHT22;708;51.442;7.016;2022-11-15T08:45:07;18.90;99.90
1429;DHT22;708;51.442;7.016;2022-11-15T08:47:35;18.90;99.90
1429;DHT22;708;51.442;7.016;2022-11-15T08:50:02;18.70;99.90
1429;DHT22;708;51.442;7.016;2022-11-15T08:52:31;18.60;99.90
1429;DHT22;708;51.442;7.016;2022-11-15T08:54:58;18.30;99.90
1429;DHT22;708;51.442;7.016;2022-11-15T08:57:28;18.20;99.90
1429;DHT22;708;51.442;7.016;2022-11-15T09:00:02;18.10;99.90
1429;DHT22;708;51.442;7.016;2022-11-15T09:02:32;18.10;99.90
1429;DHT22;708;51.442;7.016;2022-11-15T09:05:00;18.10;99.90
1429;DHT22;708;51.442;7.016;2022-11-15T09:07:27;18.20;99.90
1429;DHT22;708;51.442;7.016;2022-11-15T09:09:58;18.30;99.90
1429;DHT22;708;51.442;7.016;2022-11-15T09:12:27;18.50;99.90
1429;DHT22;708;51.442;7.016;2022-11-15T09:14:54;18.50;99.90
1429;DHT22;708;51.442;7.016;2022-11-15T09:17:21;18.50;99.90
1429;DHT22;708;51.442;7.016;2022-11-15T09:19:48;18.60;99.90
1429;DHT22;708;51.442;7.016;2022-11-15T09:22:15;18.80;99.90
1429;DHT22;708;51.442;7.016;2022-11-15T09:24:43;18.80;99.90
1429;DHT22;708;51.442;7.016;2022-11-15T09:27:11;18.80;99.90
1429;DHT22;708;51.442;7.016;2022-11-15T09:29:39;18.80;99.90
1429;DHT22;708;51.442;7.016;2022-11-15T09:32:06;18.90;99.90
1429;DHT22;708;51.442;7.016;2022-11-15T09:34:33;19.00;99.90
1429;DHT22;708;51.442;7.016;2022-11-15T09:37:00;19.30;99.90
1429;DHT22;708;51.442;7.016;2022-11-15T09:39:27;19.40;99.90
1429;DHT22;708;51.442;7.016;2022-11-15T09:42:02;19.30;99.90
1429;DHT22;708;51.442;7.016;2022-11-15T09:44:48;20.00;99.90
1429;DHT22;708;51.442;7.016;2022-11-15T09:47:38;20.20;99.90
1429;DHT22;708;51.442;7.016;2022-11-15T09:50:11;20.20;99.90
1429;DHT22;708;51.442;7.016;2022-11-15T09:52:42;19.90;99.90
1429;DHT22;708;51.442;7.016;2022-11-15T09:55:10;19.60;99.90
1429;DHT22;708;51.442;7.016;2022-11-15T09:57:47;19.30;99.90
1429;DHT22;708;51.442;7.016;2022-11-15T10:00:20;18.70;99.90
1429;DHT22;708;51.442;7.016;2022-11-15T10:03:09;18.40;99.90
1429;DHT22;708;51.442;7.016;2022-11-15T10:05:40;18.10;99.90
1429;DHT22;708;51.442;7.016;2022-11-15T10:08:23;17.80;99.90
1429;DHT22;708;51.442;7.016;2022-11-15T10:10:59;17.50;99.90
1429;DHT22;708;51.442;7.016;2022-11-15T10:13:30;17.20;99.90
1429;DHT22;708;51.442;7.016;2022-11-15T10:16:08;17.00;99.90
1429;DHT22;708;51.442;7.016;2022-11-15T10:18:47;16.80;99.90
1429;DHT22;708;51.442;7.016;2022-11-15T10:21:21;16.60;99.90
1429;DHT22;708;51.442;7.016;2022-11-15T10:23:50;16.60;99.90
1429;DHT22;708;51.442;7.016;2022-11-15T10:26:17;16.50;99.90
1429;DHT22;708;51.442;7.016;2022-11-15T10:28:44;16.40;99.90
1429;DHT22;708;51.442;7.016;2022-11-15T10:31:24;16.40;99.90
1429;DHT22;708;51.442;7.016;2022-11-15T10:34:19;16.30;99.90
1429;DHT22;708;51.442;7.016;2022-11-15T10:36:47;16.30;99.90
1429;DHT22;708;51.442;7.016;2022-11-15T10:39:20;16.20;99.90
1429;DHT22;708;51.442;7.016;2022-11-15T10:41:49;16.20;99.90
1429;DHT22;708;51.442;7.016;2022-11-15T10:44:22;16.00;99.90
1429;DHT22;708;51.442;7.016;2022-11-15T10:47:06;16.00;99.90
1429;DHT22;708;51.442;7.016;2022-11-15T10:49:34;16.00;99.90
1429;DHT22;708;51.442;7.016;2022-11-15T10:52:04;16.00;99.90
1429;DHT22;708;51.442;7.016;2022-11-15T10:54:36;16.00;99.90
1429;DHT22;708;51.442;7.016;2022-11-15T10:57:08;16.00;99.90
1429;DHT22;708;51.442;7.016;2022-11-15T10:59:38;15.90;99.90
1429;DHT22;708;51.442;7.016;2022-11-15T11:02:31;16.00;99.90
1429;DHT22;708;51.442;7.016;2022-11-15T11:05:00;16.00;99.90
1429;DHT22;708;51.442;7.016;2022-11-15T11:07:28;16.00;99.90
1429;DHT22;708;51.442;7.016;2022-11-15T11:10:02;16.00;99.90
1429;DHT22;708;51.442;7.016;2022-11-15T11:12:31;16.00;99.90
1429;DHT22;708;51.442;7.016;2022-11-15T11:15:00;16.00;99.90
1429;DHT22;708;51.442;7.016;2022-11-15T11:17:43;16.00;99.90
1429;DHT22;708;51.442;7.016;2022-11-15T11:20:20;16.00;99.90
1429;DHT22;708;51.442;7.016;2022-11-15T11:23:05;16.00;99.90
1429;DHT22;708;51.442;7.016;2022-11-15T11:25:42;15.90;99.90
1429;DHT22;708;51.442;7.016;2022-11-15T11:28:25;15.90;99.90
1429;DHT22;708;51.442;7.016;2022-11-15T11:31:03;15.90;99.90
1429;DHT22;708;51.442;7.016;2022-11-15T11:33:37;15.90;99.90
1429;DHT22;708;51.442;7.016;2022-11-15T11:36:18;15.80;99.90
1429;DHT22;708;51.442;7.016;2022-11-15T11:39:00;15.80;99.90
1429;DHT22;708;51.442;7.016;2022-11-15T11:41:45;15.80;99.90
1429;DHT22;708;51.442;7.016;2022-11-15T11:44:31;15.80;99.90
1429;DHT22;708;51.442;7.016;2022-11-15T11:47:00;15.80;99.90
1429;DHT22;708;51.442;7.016;2022-11-15T11:49:36;15.80;99.90
1429;DHT22;708;51.442;7.016;2022-11-15T11:52:10;15.80;99.90
1429;DHT22;708;51.442;7.016;2022-11-15T11:54:46;15.80;99.90
1429;DHT22;708;51.442;7.016;2022-11-15T11:57:25;15.80;99.80
1429;DHT22;708;51.442;7.016;2022-11-15T11:59:55;15.60;99.20
1429;DHT22;708;51.442;7.016;2022-11-15T12:02:28;15.50;99.10
1429;DHT22;708;51.442;7.016;2022-11-15T12:05:09;15.50;99.60
1429;DHT22;708;51.442;7.016;2022-11-15T12:07:47;15.50;98.90
1429;DHT22;708;51.442;7.016;2022-11-15T12:10:19;15.50;98.00
1429;DHT22;708;51.442;7.016;2022-11-15T12:12:53;15.50;98.10
1429;DHT22;708;51.442;7.016;2022-11-15T12:15:24;15.60;99.90
1429;DHT22;708;51.442;7.016;2022-11-15T12:17:54;15.60;97.60
1429;DHT22;708;51.442;7.016;2022-11-15T12:20:26;15.60;97.50
1429;DHT22;708;51.442;7.016;2022-11-15T12:22:57;15.60;97.30
1429;DHT22;708;51.442;7.016;2022-11-15T12:25:29;15.60;97.00
1429;DHT22;708;51.442;7.016;2022-11-15T12:28:03;15.60;97.10
1429;DHT22;708;51.442;7.016;2022-11-15T12:30:43;15.70;96.70
1429;DHT22;708;51.442;7.016;2022-11-15T12:33:32;15.70;96.60
1429;DHT22;708;51.442;7.016;2022-11-15T12:36:04;15.70;96.10
1429;DHT22;708;51.442;7.016;2022-11-15T12:39:03;15.80;95.60
1429;DHT22;708;51.442;7.016;2022-11-15T12:41:36;15.70;93.60
1429;DHT22;708;51.442;7.016;2022-11-15T12:44:04;15.80;92.70
1429;DHT22;708;51.442;7.016;2022-11-15T12:47:00;15.70;92.30
1429;DHT22;708;51.442;7.016;2022-11-15T12:49:46;15.70;92.40
1429;DHT22;708;51.442;7.016;2022-11-15T12:52:15;15.80;92.20
1429;DHT22;708;51.442;7.016;2022-11-15T12:54:52;15.70;92.00
1429;DHT22;708;51.442;7.016;2022-11-15T12:57:40;15.70;91.90
1429;DHT22;708;51.442;7.016;2022-11-15T13:03:29;15.70;91.60
1429;DHT22;708;51.442;7.016;2022-11-15T13:06:06;15.60;91.40
1429;DHT22;708;51.442;7.016;2022-11-15T13:08:48;15.60;91.80
1429;DHT22;708;51.442;7.016;2022-11-15T13:11:45;15.50;92.40
1429;DHT22;708;51.442;7.016;2022-11-15T13:14:49;15.60;92.40
1429;DHT22;708;51.442;7.016;2022-11-15T13:17:26;15.60;92.70
1429;DHT22;708;51.442;7.016;2022-11-15T13:19:57;15.70;92.70
1429;DHT22;708;51.442;7.016;2022-11-15T13:22:26;15.60;92.40
1429;DHT22;708;51.442;7.016;2022-11-15T13:25:40;15.60;92.50
1429;DHT22;708;51.442;7.016;2022-11-15T13:28:21;15.60;92.90
1429;DHT22;708;51.442;7.016;2022-11-15T13:30:51;15.60;92.60
1429;DHT22;708;51.442;7.016;2022-11-15T13:33:23;15.50;93.30
1429;DHT22;708;51.442;7.016;2022-11-15T13:35:53;15.60;92.90
1429;DHT22;708;51.442;7.016;2022-11-15T13:38:28;15.60;93.60
1429;DHT22;708;51.442;7.016;2022-11-15T13:40:58;15.70;93.60
1429;DHT22;708;51.442;7.016;2022-11-15T13:43:43;15.70;93.30
1429;DHT22;708;51.442;7.016;2022-11-15T13:46:12;15.60;93.70
1429;DHT22;708;51.442;7.016;2022-11-15T13:48:40;15.60;94.30
1429;DHT22;708;51.442;7.016;2022-11-15T13:51:13;15.60;94.30
1429;DHT22;708;51.442;7.016;2022-11-15T13:53:46;15.60;94.30
1429;DHT22;708;51.442;7.016;2022-11-15T13:56:17;15.60;94.70
1429;DHT22;708;51.442;7.016;2022-11-15T13:58:45;15.60;95.10
1429;DHT22;708;51.442;7.016;2022-11-15T14:01:16;15.60;95.10
1429;DHT22;708;51.442;7.016;2022-11-15T14:03:51;15.60;95.30
1429;DHT22;708;51.442;7.016;2022-11-15T14:06:20;15.70;95.50
1429;DHT22;708;51.442;7.016;2022-11-15T14:09:03;15.70;96.20
1429;DHT22;708;51.442;7.016;2022-11-15T14:11:32;15.80;96.00
1429;DHT22;708;51.442;7.016;2022-11-15T14:14:04;15.70;96.80
1429;DHT22;708;51.442;7.016;2022-11-15T14:16:39;15.80;97.20
1429;DHT22;708;51.442;7.016;2022-11-15T14:19:10;15.90;97.20
1429;DHT22;708;51.442;7.016;2022-11-15T14:21:38;15.80;99.90
1429;DHT22;708;51.442;7.016;2022-11-15T14:24:30;15.80;98.20
1429;DHT22;708;51.442;7.016;2022-11-15T14:27:19;15.70;99.10
1429;DHT22;708;51.442;7.016;2022-11-15T14:29:46;15.70;99.90
1429;DHT22;708;51.442;7.016;2022-11-15T14:32:16;15.70;99.90
1429;DHT22;708;51.442;7.016;2022-11-15T14:34:44;15.80;99.90
1429;DHT22;708;51.442;7.016;2022-11-15T14:37:21;15.80;99.90
1429;DHT22;708;51.442;7.016;2022-11-15T14:39:49;15.70;99.90
1429;DHT22;708;51.442;7.016;2022-11-15T14:42:20;15.70;99.90
1429;DHT22;708;51.442;7.016;2022-11-15T14:44:47;15.70;99.90
1429;DHT22;708;51.442;7.016;2022-11-15T14:47:15;15.70;99.90
1429;DHT22;708;51.442;7.016;2022-11-15T14:49:42;15.60;99.90
1429;DHT22;708;51.442;7.016;2022-11-15T14:52:29;15.50;99.90
1429;DHT22;708;51.442;7.016;2022-11-15T14:54:59;15.50;99.90
1429;DHT22;708;51.442;7.016;2022-11-15T14:57:38;15.50;99.90
1429;DHT22;708;51.442;7.016;2022-11-15T15:00:13;15.50;99.90
1429;DHT22;708;51.442;7.016;2022-11-15T15:02:41;15.50;99.90
1429;DHT22;708;51.442;7.016;2022-11-15T15:05:16;15.50;99.90
1429;DHT22;708;51.442;7.016;2022-11-15T15:07:44;15.50;99.90
1429;DHT22;708;51.442;7.016;2022-11-15T15:10:12;15.50;99.90
1429;DHT22;708;51.442;7.016;2022-11-15T15:12:42;15.40;99.90
1429;DHT22;708;51.442;7.016;2022-11-15T15:15:13;15.50;99.90
1429;DHT22;708;51.442;7.016;2022-11-15T15:17:44;15.50;99.90
1429;DHT22;708;51.442;7.016;2022-11-15T15:20:12;15.40;99.90
1429;DHT22;708;51.442;7.016;2022-11-15T15:22:39;15.40;99.90
1429;DHT22;708;51.442;7.016;2022-11-15T15:25:23;15.30;99.90
1429;DHT22;708;51.442;7.016;2022-11-15T15:27:54;15.30;99.90
1429;DHT22;708;51.442;7.016;2022-11-15T15:30:22;15.30;99.90
1429;DHT22;708;51.442;7.016;2022-11-15T15:32:49;15.30;99.90
1429;DHT22;708;51.442;7.016;2022-11-15T15:35:17;15.20;99.90
1429;DHT22;708;51.442;7.016;2022-11-15T15:37:45;15.20;99.90
1429;DHT22;708;51.442;7.016;2022-11-15T15:40:15;15.20;99.90
1429;DHT22;708;51.442;7.016;2022-11-15T15:42:43;15.20;99.90
1429;DHT22;708;51.442;7.016;2022-11-15T15:45:12;15.20;99.90
1429;DHT22;708;51.442;7.016;2022-11-15T15:47:41;15.20;99.90
1429;DHT22;708;51.442;7.016;2022-11-15T15:50:20;15.20;99.90
1429;DHT22;708;51.442;7.016;2022-11-15T15:52:48;15.10;99.90
1429;DHT22;708;51.442;7.016;2022-11-15T15:55:15;15.10;99.90
1429;DHT22;708;51.442;7.016;2022-11-15T15:57:42;15.20;99.90
1429;DHT22;708;51.442;7.016;2022-11-15T16:00:12;15.10;99.90
1429;DHT22;708;51.442;7.016;2022-11-15T16:02:40;15.10;99.90
1429;DHT22;708;51.442;7.016;2022-11-15T16:05:08;15.10;99.90
1429;DHT22;708;51.442;7.016;2022-11-15T16:07:35;15.10;99.90
1429;DHT22;708;51.442;7.016;2022-11-15T16:10:08;15.10;99.90
1429;DHT22;708;51.442;7.016;2022-11-15T16:12:40;15.10;99.90
1429;DHT22;708;51.442;7.016;2022-11-15T16:15:08;15.10;99.90
1429;DHT22;708;51.442;7.016;2022-11-15T16:17:39;15.10;99.90
1429;DHT22;708;51.442;7.016;2022-11-15T16:20:27;15.00;99.90
1429;DHT22;708;51.442;7.016;2022-11-15T16:22:55;15.00;99.90
1429;DHT22;708;51.442;7.016;2022-11-15T16:25:23;15.10;99.90
1429;DHT22;708;51.442;7.016;2022-11-15T16:27:51;15.10;99.90
1429;DHT22;708;51.442;7.016;2022-11-15T16:30:19;15.10;99.90
1429;DHT22;708;51.442;7.016;2022-11-15T16:32:48;15.20;99.90
1429;DHT22;708;51.442;7.016;2022-11-15T16:35:16;15.20;99.90
1429;DHT22;708;51.442;7.016;2022-11-15T16:37:44;15.20;99.90
1429;DHT22;708;51.442;7.016;2022-11-15T16:40:21;15.10;99.90
1429;DHT22;708;51.442;7.016;2022-11-15T16:42:50;15.20;99.90
1429;DHT22;708;51.442;7.016;2022-11-15T16:45:18;15.20;99.90
1429;DHT22;708;51.442;7.016;2022-11-15T16:47:45;15.10;99.90
1429;DHT22;708;51.442;7.016;2022-11-15T16:50:19;15.10;99.90
1429;DHT22;708;51.442;7.016;2022-11-15T16:52:51;15.20;99.90